sensor_id;sensor_type;location;lat;lon;timestamp;P1;durP1;ratioP1;P2;durP2;ratioP2
47299;SDS011;33036;51.320;17.234;2022-09-16T00:03:02;12.18;;;3.13;;
47299;SDS011;33036;51.320;17.234;2022-09-16T00:07:03;8.88;;;3.47;;
47299;SDS011;33036;51.320;17.234;2022-09-16T00:11:04;11.70;;;3.35;;
47299;SDS011;33036;51.320;17.234;2022-09-16T00:15:06;13.40;;;3.22;;
47299;SDS011;33036;51.320;17.234;2022-09-16T00:19:08;9.15;;;2.70;;
47299;SDS011;33036;51.320;17.234;2022-09-16T00:23:09;8.20;;;2.83;;
47299;SDS011;33036;51.320;17.234;2022-09-16T00:27:09;5.15;;;2.30;;
47299;SDS011;33036;51.320;17.234;2022-09-16T00:31:11;8.50;;;2.40;;
47299;SDS011;33036;51.320;17.234;2022-09-16T00:35:12;11.48;;;2.88;;
47299;SDS011;33036;51.320;17.234;2022-09-16T00:39:13;5.72;;;2.45;;
47299;SDS011;33036;51.320;17.234;2022-09-16T00:43:15;9.50;;;2.33;;
47299;SDS011;33036;51.320;17.234;2022-09-16T00:47:19;6.63;;;2.13;;
47299;SDS011;33036;51.320;17.234;2022-09-16T00:51:23;10.52;;;3.03;;
47299;SDS011;33036;51.320;17.234;2022-09-16T00:55:29;5.57;;;2.15;;
47299;SDS011;33036;51.320;17.234;2022-09-16T00:59:33;4.55;;;2.17;;
47299;SDS011;33036;51.320;17.234;2022-09-16T01:03:49;7.35;;;2.47;;
47299;SDS011;33036;51.320;17.234;2022-09-16T01:07:53;3.85;;;1.95;;
47299;SDS011;33036;51.320;17.234;2022-09-16T01:11:54;4.85;;;2.65;;
47299;SDS011;33036;51.320;17.234;2022-09-16T01:16:01;5.82;;;2.20;;
47299;SDS011;33036;51.320;17.234;2022-09-16T01:33:43;6.32;;;2.60;;
47299;SDS011;33036;51.320;17.234;2022-09-16T01:51:01;14.85;;;3.00;;
47299;SDS011;33036;51.320;17.234;2022-09-16T01:55:05;6.68;;;2.78;;
47299;SDS011;33036;51.320;17.234;2022-09-16T02:03:38;8.52;;;2.35;;
47299;SDS011;33036;51.320;17.234;2022-09-16T02:07:47;9.77;;;2.28;;
47299;SDS011;33036;51.320;17.234;2022-09-16T02:11:51;6.88;;;2.70;;
47299;SDS011;33036;51.320;17.234;2022-09-16T02:15:53;8.23;;;2.15;;
47299;SDS011;33036;51.320;17.234;2022-09-16T02:19:59;6.90;;;2.03;;
47299;SDS011;33036;51.320;17.234;2022-09-16T02:24:08;6.60;;;2.58;;
47299;SDS011;33036;51.320;17.234;2022-09-16T02:28:11;9.55;;;2.63;;
47299;SDS011;33036;51.320;17.234;2022-09-16T02:32:15;10.13;;;2.20;;
47299;SDS011;33036;51.320;17.234;2022-09-16T02:36:18;11.48;;;2.97;;
47299;SDS011;33036;51.320;17.234;2022-09-16T02:40:31;7.35;;;2.35;;
47299;SDS011;33036;51.320;17.234;2022-09-16T02:44:34;11.02;;;2.70;;
47299;SDS011;33036;51.320;17.234;2022-09-16T02:48:47;8.35;;;2.42;;
47299;SDS011;33036;51.320;17.234;2022-09-16T02:53:04;11.20;;;2.85;;
47299;SDS011;33036;51.320;17.234;2022-09-16T02:57:13;5.93;;;2.90;;
47299;SDS011;33036;51.320;17.234;2022-09-16T03:01:14;8.10;;;2.65;;
47299;SDS011;33036;51.320;17.234;2022-09-16T03:05:15;10.10;;;2.78;;
47299;SDS011;33036;51.320;17.234;2022-09-16T03:09:16;10.15;;;2.65;;
47299;SDS011;33036;51.320;17.234;2022-09-16T03:13:27;9.57;;;3.33;;
47299;SDS011;33036;51.320;17.234;2022-09-16T03:31:04;11.48;;;2.60;;
47299;SDS011;33036;51.320;17.234;2022-09-16T03:35:08;12.55;;;3.20;;
47299;SDS011;33036;51.320;17.234;2022-09-16T03:39:28;10.32;;;2.58;;
47299;SDS011;33036;51.320;17.234;2022-09-16T03:43:29;8.98;;;2.85;;
47299;SDS011;33036;51.320;17.234;2022-09-16T03:47:30;6.28;;;2.38;;
47299;SDS011;33036;51.320;17.234;2022-09-16T03:51:34;9.35;;;2.70;;
47299;SDS011;33036;51.320;17.234;2022-09-16T03:55:35;8.88;;;2.47;;
47299;SDS011;33036;51.320;17.234;2022-09-16T03:59:36;11.90;;;2.50;;
47299;SDS011;33036;51.320;17.234;2022-09-16T04:03:37;8.02;;;2.35;;
47299;SDS011;33036;51.320;17.234;2022-09-16T04:07:38;9.23;;;2.47;;
47299;SDS011;33036;51.320;17.234;2022-09-16T04:11:39;7.85;;;2.00;;
47299;SDS011;33036;51.320;17.234;2022-09-16T04:15:40;14.27;;;2.70;;
47299;SDS011;33036;51.320;17.234;2022-09-16T04:19:41;11.05;;;2.33;;
47299;SDS011;33036;51.320;17.234;2022-09-16T04:23:45;13.10;;;2.80;;
47299;SDS011;33036;51.320;17.234;2022-09-16T04:27:45;6.90;;;2.30;;
47299;SDS011;33036;51.320;17.234;2022-09-16T04:31:46;9.82;;;2.30;;
47299;SDS011;33036;51.320;17.234;2022-09-16T04:35:48;6.32;;;2.38;;
47299;SDS011;33036;51.320;17.234;2022-09-16T04:39:49;5.25;;;1.75;;
47299;SDS011;33036;51.320;17.234;2022-09-16T04:43:50;5.90;;;2.13;;
47299;SDS011;33036;51.320;17.234;2022-09-16T04:47:56;4.10;;;1.77;;
47299;SDS011;33036;51.320;17.234;2022-09-16T04:51:57;7.00;;;1.83;;
47299;SDS011;33036;51.320;17.234;2022-09-16T04:56:05;8.63;;;1.67;;
47299;SDS011;33036;51.320;17.234;2022-09-16T05:00:08;9.50;;;1.63;;
47299;SDS011;33036;51.320;17.234;2022-09-16T05:04:10;7.40;;;1.75;;
47299;SDS011;33036;51.320;17.234;2022-09-16T05:08:11;3.83;;;1.60;;
47299;SDS011;33036;51.320;17.234;2022-09-16T05:12:12;5.63;;;1.65;;
47299;SDS011;33036;51.320;17.234;2022-09-16T05:16:14;3.53;;;1.70;;
47299;SDS011;33036;51.320;17.234;2022-09-16T05:20:20;9.07;;;1.92;;
47299;SDS011;33036;51.320;17.234;2022-09-16T05:24:21;5.22;;;1.90;;
47299;SDS011;33036;51.320;17.234;2022-09-16T05:28:22;7.63;;;1.70;;
47299;SDS011;33036;51.320;17.234;2022-09-16T05:32:23;6.07;;;2.00;;
47299;SDS011;33036;51.320;17.234;2022-09-16T05:36:24;7.75;;;1.85;;
47299;SDS011;33036;51.320;17.234;2022-09-16T05:40:26;10.52;;;2.20;;
47299;SDS011;33036;51.320;17.234;2022-09-16T05:44:28;5.85;;;2.10;;
47299;SDS011;33036;51.320;17.234;2022-09-16T05:48:29;7.13;;;2.13;;
47299;SDS011;33036;51.320;17.234;2022-09-16T05:52:31;7.38;;;2.10;;
47299;SDS011;33036;51.320;17.234;2022-09-16T05:56:31;7.13;;;2.00;;
47299;SDS011;33036;51.320;17.234;2022-09-16T06:00:33;9.43;;;1.92;;
47299;SDS011;33036;51.320;17.234;2022-09-16T06:04:33;6.65;;;1.67;;
47299;SDS011;33036;51.320;17.234;2022-09-16T06:08:35;6.72;;;2.03;;
47299;SDS011;33036;51.320;17.234;2022-09-16T06:12:36;5.82;;;1.90;;
47299;SDS011;33036;51.320;17.234;2022-09-16T06:16:41;5.78;;;2.00;;
47299;SDS011;33036;51.320;17.234;2022-09-16T06:20:42;11.98;;;2.40;;
47299;SDS011;33036;51.320;17.234;2022-09-16T06:24:43;6.10;;;2.13;;
47299;SDS011;33036;51.320;17.234;2022-09-16T06:28:44;8.20;;;2.35;;
47299;SDS011;33036;51.320;17.234;2022-09-16T06:32:46;3.25;;;1.92;;
47299;SDS011;33036;51.320;17.234;2022-09-16T06:36:47;4.68;;;2.10;;
47299;SDS011;33036;51.320;17.234;2022-09-16T06:40:48;11.27;;;2.13;;
47299;SDS011;33036;51.320;17.234;2022-09-16T06:44:49;6.32;;;2.13;;
47299;SDS011;33036;51.320;17.234;2022-09-16T06:48:51;6.55;;;2.53;;
47299;SDS011;33036;51.320;17.234;2022-09-16T06:52:53;6.22;;;3.00;;
47299;SDS011;33036;51.320;17.234;2022-09-16T06:56:54;12.23;;;3.20;;
47299;SDS011;33036;51.320;17.234;2022-09-16T07:00:55;6.88;;;2.72;;
47299;SDS011;33036;51.320;17.234;2022-09-16T07:04:56;5.40;;;2.80;;
47299;SDS011;33036;51.320;17.234;2022-09-16T07:08:57;8.30;;;3.00;;
47299;SDS011;33036;51.320;17.234;2022-09-16T07:12:59;4.75;;;2.30;;
47299;SDS011;33036;51.320;17.234;2022-09-16T07:17:00;5.85;;;2.40;;
47299;SDS011;33036;51.320;17.234;2022-09-16T07:21:17;5.18;;;2.13;;
47299;SDS011;33036;51.320;17.234;2022-09-16T07:25:20;7.70;;;2.40;;
47299;SDS011;33036;51.320;17.234;2022-09-16T07:29:21;12.63;;;2.47;;
47299;SDS011;33036;51.320;17.234;2022-09-16T07:33:21;7.85;;;2.88;;
47299;SDS011;33036;51.320;17.234;2022-09-16T07:37:23;6.82;;;1.88;;
47299;SDS011;33036;51.320;17.234;2022-09-16T07:41:33;3.13;;;1.80;;
47299;SDS011;33036;51.320;17.234;2022-09-16T07:45:36;4.90;;;1.70;;
47299;SDS011;33036;51.320;17.234;2022-09-16T07:49:37;4.88;;;1.80;;
47299;SDS011;33036;51.320;17.234;2022-09-16T07:53:38;5.63;;;1.83;;
47299;SDS011;33036;51.320;17.234;2022-09-16T07:57:39;4.00;;;1.90;;
47299;SDS011;33036;51.320;17.234;2022-09-16T08:01:40;5.53;;;2.03;;
47299;SDS011;33036;51.320;17.234;2022-09-16T08:05:41;4.97;;;1.63;;
47299;SDS011;33036;51.320;17.234;2022-09-16T08:09:42;7.72;;;1.95;;
47299;SDS011;33036;51.320;17.234;2022-09-16T08:13:43;3.42;;;1.70;;
47299;SDS011;33036;51.320;17.234;2022-09-16T08:17:45;4.47;;;1.70;;
47299;SDS011;33036;51.320;17.234;2022-09-16T08:21:46;4.85;;;1.77;;
47299;SDS011;33036;51.320;17.234;2022-09-16T08:25:51;6.30;;;2.30;;
47299;SDS011;33036;51.320;17.234;2022-09-16T08:29:56;6.00;;;1.70;;
47299;SDS011;33036;51.320;17.234;2022-09-16T08:34:00;3.17;;;1.70;;
47299;SDS011;33036;51.320;17.234;2022-09-16T08:38:00;4.95;;;1.67;;
47299;SDS011;33036;51.320;17.234;2022-09-16T08:42:14;6.57;;;1.80;;
47299;SDS011;33036;51.320;17.234;2022-09-16T08:46:27;8.23;;;1.67;;
47299;SDS011;33036;51.320;17.234;2022-09-16T08:50:38;5.00;;;1.80;;
47299;SDS011;33036;51.320;17.234;2022-09-16T08:54:46;6.13;;;1.77;;
47299;SDS011;33036;51.320;17.234;2022-09-16T08:58:53;4.90;;;1.80;;
47299;SDS011;33036;51.320;17.234;2022-09-16T09:07:16;4.35;;;1.75;;
47299;SDS011;33036;51.320;17.234;2022-09-16T09:11:34;10.50;;;1.50;;
47299;SDS011;33036;51.320;17.234;2022-09-16T09:37:24;6.75;;;1.80;;
47299;SDS011;33036;51.320;17.234;2022-09-16T09:41:51;4.40;;;1.42;;
47299;SDS011;33036;51.320;17.234;2022-09-16T09:46:17;6.60;;;1.73;;
47299;SDS011;33036;51.320;17.234;2022-09-16T09:54:29;6.00;;;1.92;;
47299;SDS011;33036;51.320;17.234;2022-09-16T09:58:39;8.40;;;1.65;;
47299;SDS011;33036;51.320;17.234;2022-09-16T10:02:44;5.05;;;1.35;;
47299;SDS011;33036;51.320;17.234;2022-09-16T10:06:45;6.95;;;1.30;;
47299;SDS011;33036;51.320;17.234;2022-09-16T10:10:51;2.75;;;1.25;;
47299;SDS011;33036;51.320;17.234;2022-09-16T10:14:54;5.55;;;1.70;;
47299;SDS011;33036;51.320;17.234;2022-09-16T10:18:57;7.03;;;1.50;;
47299;SDS011;33036;51.320;17.234;2022-09-16T10:23:04;8.15;;;1.80;;
47299;SDS011;33036;51.320;17.234;2022-09-16T10:27:19;4.32;;;1.40;;
47299;SDS011;33036;51.320;17.234;2022-09-16T10:31:34;7.38;;;1.60;;
47299;SDS011;33036;51.320;17.234;2022-09-16T10:35:40;5.63;;;1.38;;
47299;SDS011;33036;51.320;17.234;2022-09-16T10:40:14;3.28;;;1.50;;
47299;SDS011;33036;51.320;17.234;2022-09-16T10:44:19;8.95;;;1.50;;
47299;SDS011;33036;51.320;17.234;2022-09-16T10:48:26;12.55;;;1.80;;
47299;SDS011;33036;51.320;17.234;2022-09-16T10:52:28;7.07;;;1.13;;
47299;SDS011;33036;51.320;17.234;2022-09-16T10:56:31;5.82;;;1.50;;
47299;SDS011;33036;51.320;17.234;2022-09-16T11:00:39;5.03;;;1.10;;
47299;SDS011;33036;51.320;17.234;2022-09-16T11:22:01;2.78;;;1.35;;
47299;SDS011;33036;51.320;17.234;2022-09-16T11:26:10;3.05;;;1.00;;
47299;SDS011;33036;51.320;17.234;2022-09-16T11:30:32;2.83;;;1.10;;
47299;SDS011;33036;51.320;17.234;2022-09-16T11:35:02;3.15;;;0.93;;
47299;SDS011;33036;51.320;17.234;2022-09-16T11:39:26;3.78;;;0.90;;
47299;SDS011;33036;51.320;17.234;2022-09-16T11:43:45;2.65;;;1.10;;
47299;SDS011;33036;51.320;17.234;2022-09-16T11:56:52;3.50;;;1.23;;
47299;SDS011;33036;51.320;17.234;2022-09-16T12:01:00;6.78;;;1.40;;
47299;SDS011;33036;51.320;17.234;2022-09-16T12:09:54;3.35;;;1.10;;
47299;SDS011;33036;51.320;17.234;2022-09-16T12:18:17;3.22;;;1.13;;
47299;SDS011;33036;51.320;17.234;2022-09-16T12:22:22;5.25;;;1.25;;
47299;SDS011;33036;51.320;17.234;2022-09-16T12:26:29;2.60;;;0.80;;
47299;SDS011;33036;51.320;17.234;2022-09-16T12:30:36;4.82;;;1.20;;
47299;SDS011;33036;51.320;17.234;2022-09-16T12:34:47;4.90;;;1.30;;
47299;SDS011;33036;51.320;17.234;2022-09-16T12:38:51;3.05;;;1.20;;
47299;SDS011;33036;51.320;17.234;2022-09-16T12:47:22;4.35;;;1.27;;
47299;SDS011;33036;51.320;17.234;2022-09-16T12:51:40;3.72;;;1.40;;
47299;SDS011;33036;51.320;17.234;2022-09-16T13:05:10;7.85;;;1.10;;
47299;SDS011;33036;51.320;17.234;2022-09-16T13:09:22;3.78;;;1.00;;
47299;SDS011;33036;51.320;17.234;2022-09-16T13:13:29;4.07;;;0.98;;
47299;SDS011;33036;51.320;17.234;2022-09-16T13:17:35;3.80;;;1.23;;
47299;SDS011;33036;51.320;17.234;2022-09-16T13:21:39;4.07;;;1.10;;
47299;SDS011;33036;51.320;17.234;2022-09-16T13:34:13;3.10;;;1.13;;
47299;SDS011;33036;51.320;17.234;2022-09-16T13:42:30;3.80;;;0.73;;
47299;SDS011;33036;51.320;17.234;2022-09-16T13:46:34;1.88;;;0.70;;
47299;SDS011;33036;51.320;17.234;2022-09-16T13:50:36;1.30;;;0.80;;
47299;SDS011;33036;51.320;17.234;2022-09-16T13:54:42;3.25;;;1.10;;
47299;SDS011;33036;51.320;17.234;2022-09-16T14:07:19;3.60;;;0.80;;
47299;SDS011;33036;51.320;17.234;2022-09-16T14:11:37;1.25;;;0.80;;
47299;SDS011;33036;51.320;17.234;2022-09-16T14:15:45;1.88;;;0.90;;
47299;SDS011;33036;51.320;17.234;2022-09-16T14:19:48;1.80;;;0.60;;
47299;SDS011;33036;51.320;17.234;2022-09-16T14:23:50;6.18;;;0.70;;
47299;SDS011;33036;51.320;17.234;2022-09-16T14:28:05;6.72;;;0.80;;
47299;SDS011;33036;51.320;17.234;2022-09-16T14:32:10;3.60;;;1.00;;
47299;SDS011;33036;51.320;17.234;2022-09-16T14:36:15;0.73;;;0.50;;
47299;SDS011;33036;51.320;17.234;2022-09-16T14:40:20;0.80;;;0.77;;
47299;SDS011;33036;51.320;17.234;2022-09-16T14:44:33;1.75;;;1.00;;
47299;SDS011;33036;51.320;17.234;2022-09-16T14:48:37;2.78;;;0.65;;
47299;SDS011;33036;51.320;17.234;2022-09-16T14:52:38;2.85;;;0.60;;
47299;SDS011;33036;51.320;17.234;2022-09-16T14:56:40;0.50;;;0.50;;
47299;SDS011;33036;51.320;17.234;2022-09-16T15:00:45;2.17;;;0.80;;
47299;SDS011;33036;51.320;17.234;2022-09-16T15:04:52;2.92;;;0.63;;
47299;SDS011;33036;51.320;17.234;2022-09-16T15:09:21;2.42;;;0.90;;
47299;SDS011;33036;51.320;17.234;2022-09-16T15:13:29;3.40;;;0.77;;
47299;SDS011;33036;51.320;17.234;2022-09-16T15:17:35;1.00;;;0.60;;
47299;SDS011;33036;51.320;17.234;2022-09-16T15:21:37;1.50;;;0.57;;
47299;SDS011;33036;51.320;17.234;2022-09-16T15:25:38;5.72;;;0.70;;
47299;SDS011;33036;51.320;17.234;2022-09-16T15:29:46;1.85;;;0.70;;
47299;SDS011;33036;51.320;17.234;2022-09-16T15:33:50;4.78;;;0.60;;
47299;SDS011;33036;51.320;17.234;2022-09-16T15:37:52;3.20;;;1.23;;
47299;SDS011;33036;51.320;17.234;2022-09-16T15:42:02;4.95;;;1.40;;
47299;SDS011;33036;51.320;17.234;2022-09-16T15:46:13;2.17;;;0.70;;
47299;SDS011;33036;51.320;17.234;2022-09-16T15:50:17;1.40;;;0.80;;
47299;SDS011;33036;51.320;17.234;2022-09-16T15:54:22;2.45;;;1.25;;
47299;SDS011;33036;51.320;17.234;2022-09-16T16:02:34;7.53;;;1.63;;
47299;SDS011;33036;51.320;17.234;2022-09-16T16:11:04;3.60;;;2.22;;
47299;SDS011;33036;51.320;17.234;2022-09-16T16:19:07;5.78;;;2.78;;
47299;SDS011;33036;51.320;17.234;2022-09-16T16:23:09;5.93;;;2.97;;
47299;SDS011;33036;51.320;17.234;2022-09-16T16:27:12;6.15;;;3.05;;
47299;SDS011;33036;51.320;17.234;2022-09-16T16:31:14;8.98;;;3.65;;
47299;SDS011;33036;51.320;17.234;2022-09-16T16:35:15;2.53;;;1.50;;
47299;SDS011;33036;51.320;17.234;2022-09-16T16:39:16;3.17;;;1.38;;
47299;SDS011;33036;51.320;17.234;2022-09-16T16:43:17;1.20;;;0.90;;
47299;SDS011;33036;51.320;17.234;2022-09-16T16:47:18;3.15;;;1.02;;
47299;SDS011;33036;51.320;17.234;2022-09-16T16:51:19;2.25;;;1.10;;
47299;SDS011;33036;51.320;17.234;2022-09-16T16:55:20;2.67;;;1.13;;
47299;SDS011;33036;51.320;17.234;2022-09-16T16:59:21;3.13;;;1.30;;
47299;SDS011;33036;51.320;17.234;2022-09-16T17:03:23;3.03;;;1.52;;
47299;SDS011;33036;51.320;17.234;2022-09-16T17:07:24;3.65;;;1.52;;
47299;SDS011;33036;51.320;17.234;2022-09-16T17:11:25;3.10;;;1.95;;
47299;SDS011;33036;51.320;17.234;2022-09-16T17:15:26;6.05;;;1.88;;
47299;SDS011;33036;51.320;17.234;2022-09-16T17:19:27;6.13;;;2.17;;
47299;SDS011;33036;51.320;17.234;2022-09-16T17:23:28;3.58;;;1.63;;
47299;SDS011;33036;51.320;17.234;2022-09-16T17:27:29;4.00;;;1.90;;
47299;SDS011;33036;51.320;17.234;2022-09-16T17:31:31;2.08;;;1.33;;
47299;SDS011;33036;51.320;17.234;2022-09-16T17:35:33;3.65;;;1.75;;
47299;SDS011;33036;51.320;17.234;2022-09-16T17:39:34;6.15;;;2.90;;
47299;SDS011;33036;51.320;17.234;2022-09-16T17:43:35;5.10;;;1.67;;
47299;SDS011;33036;51.320;17.234;2022-09-16T17:47:37;4.22;;;1.50;;
47299;SDS011;33036;51.320;17.234;2022-09-16T17:51:38;4.13;;;2.30;;
47299;SDS011;33036;51.320;17.234;2022-09-16T17:55:38;7.22;;;1.85;;
47299;SDS011;33036;51.320;17.234;2022-09-16T17:59:40;3.80;;;1.77;;
47299;SDS011;33036;51.320;17.234;2022-09-16T18:03:41;4.95;;;1.55;;
47299;SDS011;33036;51.320;17.234;2022-09-16T18:07:44;5.55;;;1.20;;
47299;SDS011;33036;51.320;17.234;2022-09-16T18:11:46;3.00;;;1.30;;
47299;SDS011;33036;51.320;17.234;2022-09-16T18:15:47;3.53;;;1.42;;
47299;SDS011;33036;51.320;17.234;2022-09-16T18:19:48;2.58;;;1.45;;
47299;SDS011;33036;51.320;17.234;2022-09-16T18:23:53;2.42;;;1.30;;
47299;SDS011;33036;51.320;17.234;2022-09-16T18:27:55;5.20;;;1.42;;
47299;SDS011;33036;51.320;17.234;2022-09-16T18:31:57;3.65;;;1.38;;
47299;SDS011;33036;51.320;17.234;2022-09-16T18:35:58;5.53;;;1.30;;
47299;SDS011;33036;51.320;17.234;2022-09-16T18:40:01;4.45;;;1.50;;
47299;SDS011;33036;51.320;17.234;2022-09-16T18:44:03;8.77;;;2.10;;
47299;SDS011;33036;51.320;17.234;2022-09-16T18:48:07;5.90;;;2.15;;
47299;SDS011;33036;51.320;17.234;2022-09-16T18:52:11;4.00;;;1.95;;
47299;SDS011;33036;51.320;17.234;2022-09-16T18:56:12;5.93;;;1.77;;
47299;SDS011;33036;51.320;17.234;2022-09-16T19:00:14;4.88;;;1.60;;
47299;SDS011;33036;51.320;17.234;2022-09-16T19:04:18;3.67;;;1.45;;
47299;SDS011;33036;51.320;17.234;2022-09-16T19:08:20;2.85;;;1.55;;
47299;SDS011;33036;51.320;17.234;2022-09-16T19:12:21;6.38;;;1.60;;
47299;SDS011;33036;51.320;17.234;2022-09-16T19:16:22;4.00;;;1.33;;
47299;SDS011;33036;51.320;17.234;2022-09-16T19:20:24;3.58;;;1.25;;
47299;SDS011;33036;51.320;17.234;2022-09-16T19:24:26;2.83;;;1.55;;
47299;SDS011;33036;51.320;17.234;2022-09-16T19:28:28;5.72;;;2.20;;
47299;SDS011;33036;51.320;17.234;2022-09-16T19:32:29;3.60;;;1.80;;
47299;SDS011;33036;51.320;17.234;2022-09-16T19:36:33;4.90;;;2.65;;
47299;SDS011;33036;51.320;17.234;2022-09-16T19:40:35;4.65;;;2.45;;
47299;SDS011;33036;51.320;17.234;2022-09-16T19:44:36;5.72;;;2.60;;
47299;SDS011;33036;51.320;17.234;2022-09-16T19:48:38;7.03;;;2.65;;
47299;SDS011;33036;51.320;17.234;2022-09-16T19:52:41;4.95;;;2.72;;
47299;SDS011;33036;51.320;17.234;2022-09-16T19:56:41;6.60;;;2.83;;
47299;SDS011;33036;51.320;17.234;2022-09-16T20:00:43;9.43;;;2.90;;
47299;SDS011;33036;51.320;17.234;2022-09-16T20:04:44;7.15;;;2.75;;
47299;SDS011;33036;51.320;17.234;2022-09-16T20:08:46;11.70;;;2.78;;
47299;SDS011;33036;51.320;17.234;2022-09-16T20:12:48;8.02;;;2.90;;
47299;SDS011;33036;51.320;17.234;2022-09-16T20:16:53;5.90;;;2.50;;
47299;SDS011;33036;51.320;17.234;2022-09-16T20:25:05;14.40;;;2.60;;
47299;SDS011;33036;51.320;17.234;2022-09-16T20:29:06;4.25;;;2.10;;
47299;SDS011;33036;51.320;17.234;2022-09-16T20:33:07;4.70;;;1.63;;
47299;SDS011;33036;51.320;17.234;2022-09-16T20:37:08;5.25;;;2.20;;
47299;SDS011;33036;51.320;17.234;2022-09-16T20:41:10;5.88;;;1.45;;
47299;SDS011;33036;51.320;17.234;2022-09-16T20:45:18;2.55;;;1.30;;
47299;SDS011;33036;51.320;17.234;2022-09-16T20:49:19;6.22;;;1.92;;
47299;SDS011;33036;51.320;17.234;2022-09-16T20:53:22;3.78;;;1.60;;
47299;SDS011;33036;51.320;17.234;2022-09-16T20:57:23;6.45;;;1.40;;
47299;SDS011;33036;51.320;17.234;2022-09-16T21:01:26;24.88;;;1.65;;
47299;SDS011;33036;51.320;17.234;2022-09-16T21:05:28;5.18;;;1.98;;
47299;SDS011;33036;51.320;17.234;2022-09-16T21:09:29;8.93;;;1.88;;
47299;SDS011;33036;51.320;17.234;2022-09-16T21:13:30;5.78;;;1.67;;
47299;SDS011;33036;51.320;17.234;2022-09-16T21:17:31;3.75;;;2.00;;
47299;SDS011;33036;51.320;17.234;2022-09-16T21:21:32;4.05;;;1.95;;
47299;SDS011;33036;51.320;17.234;2022-09-16T21:25:32;4.43;;;1.70;;
47299;SDS011;33036;51.320;17.234;2022-09-16T21:29:33;6.88;;;1.92;;
47299;SDS011;33036;51.320;17.234;2022-09-16T21:33:35;8.07;;;2.25;;
47299;SDS011;33036;51.320;17.234;2022-09-16T21:37:37;5.53;;;2.38;;
47299;SDS011;33036;51.320;17.234;2022-09-16T21:41:38;3.63;;;2.15;;
47299;SDS011;33036;51.320;17.234;2022-09-16T21:45:42;6.45;;;2.67;;
47299;SDS011;33036;51.320;17.234;2022-09-16T21:49:43;5.25;;;2.30;;
47299;SDS011;33036;51.320;17.234;2022-09-16T21:53:45;4.85;;;2.08;;
47299;SDS011;33036;51.320;17.234;2022-09-16T21:57:46;2.95;;;2.10;;
47299;SDS011;33036;51.320;17.234;2022-09-16T22:01:50;7.38;;;1.88;;
47299;SDS011;33036;51.320;17.234;2022-09-16T22:05:51;4.22;;;2.15;;
47299;SDS011;33036;51.320;17.234;2022-09-16T22:09:52;4.85;;;2.10;;
47299;SDS011;33036;51.320;17.234;2022-09-16T22:13:54;6.72;;;2.30;;
47299;SDS011;33036;51.320;17.234;2022-09-16T22:17:55;6.25;;;2.30;;
47299;SDS011;33036;51.320;17.234;2022-09-16T22:21:56;3.35;;;1.70;;
47299;SDS011;33036;51.320;17.234;2022-09-16T22:26:01;3.53;;;1.85;;
47299;SDS011;33036;51.320;17.234;2022-09-16T22:30:10;4.60;;;1.70;;
47299;SDS011;33036;51.320;17.234;2022-09-16T22:34:11;8.40;;;1.75;;
47299;SDS011;33036;51.320;17.234;2022-09-16T22:38:12;3.72;;;1.77;;
47299;SDS011;33036;51.320;17.234;2022-09-16T22:42:13;8.55;;;1.70;;
47299;SDS011;33036;51.320;17.234;2022-09-16T22:46:21;4.10;;;1.80;;
47299;SDS011;33036;51.320;17.234;2022-09-16T22:50:26;2.53;;;1.38;;
47299;SDS011;33036;51.320;17.234;2022-09-16T22:54:27;5.05;;;1.50;;
47299;SDS011;33036;51.320;17.234;2022-09-16T22:58:28;4.55;;;1.70;;
47299;SDS011;33036;51.320;17.234;2022-09-16T23:02:30;6.78;;;1.80;;
47299;SDS011;33036;51.320;17.234;2022-09-16T23:06:32;6.38;;;1.90;;
47299;SDS011;33036;51.320;17.234;2022-09-16T23:10:35;3.35;;;1.70;;
47299;SDS011;33036;51.320;17.234;2022-09-16T23:14:37;6.78;;;1.80;;
47299;SDS011;33036;51.320;17.234;2022-09-16T23:18:38;7.68;;;1.83;;
47299;SDS011;33036;51.320;17.234;2022-09-16T23:22:39;3.67;;;1.75;;
47299;SDS011;33036;51.320;17.234;2022-09-16T23:26:40;3.88;;;1.75;;
47299;SDS011;33036;51.320;17.234;2022-09-16T23:30:41;3.40;;;1.55;;
47299;SDS011;33036;51.320;17.234;2022-09-16T23:34:42;2.50;;;1.65;;
47299;SDS011;33036;51.320;17.234;2022-09-16T23:38:43;5.30;;;1.50;;
47299;SDS011;33036;51.320;17.234;2022-09-16T23:42:45;3.90;;;1.95;;
47299;SDS011;33036;51.320;17.234;2022-09-16T23:46:46;10.63;;;1.88;;
47299;SDS011;33036;51.320;17.234;2022-09-16T23:50:47;3.47;;;1.50;;
47299;SDS011;33036;51.320;17.234;2022-09-16T23:54:48;3.60;;;1.70;;
47299;SDS011;33036;51.320;17.234;2022-09-16T23:58:49;4.57;;;1.83;;
